Time;durP1;ratioP1;P1;durP2;ratioP2;P2;SDS_P1;SDS_P2;PMS_P1;PMS_P2;Temp;Humidity;BMP_temperature;BMP_pressure;BME280_temperature;BME280_humidity;BME280_pressure;Samples;Min_cycle;Max_cycle;Signal;HPM_P1;HPM_P2
2023/08/31 00:02:09;;;;;;;1.52;1.42;;;16.60;99.90;;;;;;5211788;28;20044;-66
2023/08/31 00:04:43;;;;;;;1.90;1.70;;;16.60;99.90;;;;;;5181467;28;20055;-62
2023/08/31 00:07:14;;;;;;;1.70;1.60;;;16.60;99.90;;;;;;5207945;28;20274;-62
2023/08/31 00:09:47;;;;;;;2.08;1.80;;;16.70;99.90;;;;;;5215510;28;20513;-66
2023/08/31 00:12:22;;;;;;;1.77;1.67;;;16.70;99.90;;;;;;5199545;28;20039;-63
2023/08/31 00:14:53;;;;;;;;;;;16.70;99.90;;;;;;5199516;28;20728;-66
2023/08/31 00:17:24;;;;;;;1.98;1.52;;;16.70;99.90;;;;;;5186559;28;20241;-65
2023/08/31 00:19:58;;;;;;;1.67;1.58;;;16.70;99.90;;;;;;5198884;28;20029;-65
2023/08/31 00:22:32;;;;;;;1.98;1.85;;;16.70;99.90;;;;;;5191141;28;20048;-66
2023/08/31 00:25:10;;;;;;;2.00;1.90;;;16.70;1.00;;;;;;5198327;28;20035;-66
2023/08/31 00:27:47;;;;;;;1.77;1.67;;;16.70;1.00;;;;;;5215430;28;20056;-65
2023/08/31 00:30:21;;;;;;;2.75;2.10;;;16.70;99.90;;;;;;5199354;28;20028;-65
2023/08/31 00:32:53;;;;;;;2.13;1.92;;;16.70;99.90;;;;;;5199565;28;20036;-66
2023/08/31 00:35:24;;;;;;;2.28;1.58;;;16.70;1.00;;;;;;5192670;28;20040;-63
2023/08/31 00:37:58;;;;;;;1.60;1.50;;;16.60;1.00;;;;;;5214731;28;20037;-65
2023/08/31 00:40:35;;;;;;;3.55;1.90;;;16.70;1.00;;;;;;5218502;28;20043;-64
2023/08/31 00:43:07;;;;;;;2.67;2.13;;;16.60;1.00;;;;;;5196140;28;21288;-65
2023/08/31 00:45:40;;;;;;;2.22;1.70;;;16.60;1.00;;;;;;5197809;28;20036;-58
2023/08/31 00:48:16;;;;;;;2.10;1.90;;;16.60;1.00;;;;;;5222894;28;20034;-63
2023/08/31 00:50:48;;;;;;;1.90;1.80;;;16.60;1.00;;;;;;5239501;28;20047;-64
2023/08/31 00:53:20;;;;;;;2.10;2.00;;;16.60;1.00;;;;;;5198107;28;20509;-62
2023/08/31 00:55:52;;;;;;;1.63;1.52;;;16.60;1.00;;;;;;5217190;28;20040;-65
2023/08/31 00:58:25;;;;;;;2.00;1.70;;;16.50;1.00;;;;;;5197546;28;20037;-64
2023/08/31 01:01:50;;;;;;;2.67;2.10;;;16.50;1.00;;;;;;5242668;22;20053;-84
2023/08/31 01:04:48;;;;;;;1.88;1.77;;;16.50;1.00;;;;;;5293243;28;20031;-85
2023/08/31 01:07:43;;;;;;;3.85;1.60;;;16.50;1.00;;;;;;5271129;28;20034;-87
2023/08/31 01:10:23;;;;;;;;;;;16.50;1.00;;;;;;5270484;28;20032;-84
2023/08/31 01:13:03;;;;;;;1.95;1.85;;;16.40;1.00;;;;;;5252839;28;19903;-86
2023/08/31 01:15:36;;;;;;;1.80;1.70;;;16.40;1.00;;;;;;5269754;28;20034;-85
2023/08/31 01:18:16;;;;;;;2.03;1.80;;;16.40;1.00;;;;;;5269458;28;20045;-85
2023/08/31 01:21:06;;;;;;;1.90;1.80;;;16.30;99.90;;;;;;5285832;28;20031;-85
2023/08/31 01:23:55;;;;;;;2.03;1.83;;;16.20;99.90;;;;;;5268427;28;20049;-85
2023/08/31 01:26:27;;;;;;;2.30;2.08;;;15.90;1.00;;;;;;5267991;28;20031;-84
2023/08/31 01:28:59;;;;;;;2.30;2.10;;;15.60;1.00;;;;;;5268996;28;20023;-85
2023/08/31 01:31:31;;;;;;;2.03;1.83;;;15.40;1.00;;;;;;5269104;28;20033;-86
2023/08/31 01:34:05;;;;;;;2.13;1.95;;;15.30;1.00;;;;;;5269627;28;20023;-85
2023/08/31 01:36:40;;;;;;;2.88;2.58;;;15.20;1.00;;;;;;5268367;28;20034;-84
2023/08/31 01:39:38;;;;;;;2.50;2.30;;;15.10;1.00;;;;;;5286336;28;20306;-85
2023/08/31 01:42:13;;;;;;;2.97;2.33;;;15.10;1.00;;;;;;5267952;28;20038;-85
2023/08/31 01:44:48;;;;;;;2.30;2.10;;;15.00;1.00;;;;;;5286351;28;20037;-86
2023/08/31 01:47:20;;;;;;;2.70;2.50;;;15.00;1.00;;;;;;5284938;28;20031;-85
2023/08/31 01:49:57;;;;;;;3.03;2.47;;;15.00;1.00;;;;;;5268032;28;20207;-86
2023/08/31 01:55:56;;;;;;;2.45;2.25;;;14.90;1.00;;;;;;5285990;28;20025;-84
2023/08/31 01:58:28;;;;;;;2.58;2.38;;;14.80;12.10;;;;;;5268060;28;20034;-85
2023/08/31 02:01:00;;;;;;;2.85;2.58;;;14.80;99.90;;;;;;5268658;28;20046;-84
2023/08/31 02:03:31;;;;;;;2.83;2.63;;;14.80;99.90;;;;;;5267985;28;20049;-84
2023/08/31 02:06:04;;;;;;;3.13;2.67;;;14.80;99.90;;;;;;5267541;28;20241;-85
2023/08/31 02:08:35;;;;;;;2.53;2.33;;;14.70;99.90;;;;;;5266704;28;20037;-87
2023/08/31 02:11:07;;;;;;;2.50;2.20;;;14.70;99.90;;;;;;5267110;28;20217;-84
2023/08/31 02:13:38;;;;;;;3.50;2.50;;;14.70;99.90;;;;;;5267113;28;20032;-86
2023/08/31 02:16:12;;;;;;;2.55;2.20;;;14.70;99.90;;;;;;5267286;28;20027;-85
2023/08/31 02:18:43;;;;;;;2.63;2.28;;;14.70;99.90;;;;;;5267107;28;20355;-85
2023/08/31 02:21:20;;;;;;;2.85;2.65;;;14.70;99.90;;;;;;5267221;28;20027;-86
2023/08/31 02:23:51;;;;;;;2.47;2.28;;;14.70;99.90;;;;;;5284511;28;20037;-85
2023/08/31 02:26:26;;;;;;;2.75;2.33;;;14.80;99.90;;;;;;5269044;28;20037;-85
2023/08/31 02:29:00;;;;;;;2.75;2.17;;;14.80;99.90;;;;;;5253508;28;20031;-86
2023/08/31 02:31:34;;;;;;;2.30;2.10;;;14.80;99.90;;;;;;5236069;28;20030;-86
2023/08/31 02:34:10;;;;;;;2.35;2.15;;;14.90;99.90;;;;;;5288777;28;20244;-85
2023/08/31 02:36:47;;;;;;;2.83;2.63;;;14.90;99.90;;;;;;5291349;28;20028;-85
2023/08/31 02:39:20;;;;;;;3.13;2.75;;;14.90;99.90;;;;;;5291726;28;20031;-86
2023/08/31 02:41:55;;;;;;;2.78;2.58;;;14.90;99.90;;;;;;5277612;28;20042;-87
2023/08/31 02:44:26;;;;;;;2.70;2.47;;;14.90;99.90;;;;;;5278556;28;20042;-85
2023/08/31 02:47:01;;;;;;;2.55;2.30;;;14.90;99.90;;;;;;5278017;28;20038;-86
2023/08/31 02:49:34;;;;;;;2.55;2.35;;;15.00;8.20;;;;;;5278361;28;20034;-86
2023/08/31 02:52:09;;;;;;;2.72;2.53;;;15.00;13.70;;;;;;5279095;28;20027;-86
2023/08/31 02:54:46;;;;;;;2.35;1.88;;;15.10;1.00;;;;;;5292504;28;20034;-85
2023/08/31 02:57:23;;;;;;;2.70;2.33;;;15.10;1.00;;;;;;5274282;28;20348;-85
2023/08/31 02:59:57;;;;;;;2.00;1.90;;;15.20;1.00;;;;;;5272533;28;20038;-85
2023/08/31 03:02:29;;;;;;;2.00;1.90;;;15.30;1.00;;;;;;5288972;28;20035;-85
2023/08/31 03:08:33;;;;;;;2.00;1.80;;;15.30;1.00;;;;;;5289623;28;20031;-87
2023/08/31 03:11:05;;;;;;;1.98;1.80;;;15.30;1.00;;;;;;5272573;28;20318;-85
2023/08/31 03:13:36;;;;;;;3.28;1.60;;;15.40;1.00;;;;;;5273551;28;20031;-84
2023/08/31 03:16:10;;;;;;;1.65;1.55;;;15.40;1.00;;;;;;5274075;28;20023;-85
2023/08/31 03:18:44;;;;;;;2.97;1.65;;;15.40;1.00;;;;;;5274757;28;20031;-85
2023/08/31 03:21:18;;;;;;;2.17;1.90;;;15.40;1.00;;;;;;5280732;28;20027;-85
2023/08/31 03:23:50;;;;;;;2.00;1.67;;;15.60;99.90;;;;;;5277571;28;20032;-86
2023/08/31 03:26:22;;;;;;;3.13;1.40;;;15.60;99.90;;;;;;5277053;28;20030;-85
2023/08/31 03:28:53;;;;;;;1.58;1.48;;;15.60;99.90;;;;;;5270684;28;20131;-85
2023/08/31 03:31:31;;;;;;;1.60;1.50;;;15.70;99.90;;;;;;5287526;28;20034;-86
2023/08/31 03:34:03;;;;;;;2.45;1.77;;;15.70;99.90;;;;;;5255530;28;20031;-87
2023/08/31 03:36:36;;;;;;;1.60;1.48;;;15.80;99.90;;;;;;5273229;28;20028;-85
2023/08/31 03:39:08;;;;;;;1.48;1.38;;;15.90;1.00;;;;;;5272461;28;20225;-85
2023/08/31 03:41:40;;;;;;;1.42;1.33;;;15.90;1.00;;;;;;5275420;28;20038;-84
2023/08/31 03:44:12;;;;;;;1.52;1.42;;;15.90;1.00;;;;;;5274252;28;20031;-85
2023/08/31 03:46:43;;;;;;;1.80;1.42;;;15.90;1.00;;;;;;5272058;28;20225;-85
2023/08/31 03:49:14;;;;;;;1.95;1.55;;;15.90;1.00;;;;;;5270995;28;20027;-85
2023/08/31 03:51:46;;;;;;;2.08;1.42;;;15.90;1.00;;;;;;5272179;28;20024;-86
2023/08/31 03:57:47;;;;;;;1.55;1.30;;;15.90;1.00;;;;;;5287880;28;20323;-84
2023/08/31 04:00:19;;;;;;;2.00;1.80;;;15.90;1.00;;;;;;5270773;28;20128;-85
2023/08/31 04:02:54;;;;;;;1.92;1.60;;;15.90;1.00;;;;;;5270540;28;20028;-85
2023/08/31 04:05:25;;;;;;;1.60;1.50;;;15.90;1.00;;;;;;5269180;28;20027;-84
2023/08/31 04:07:58;;;;;;;2.35;1.67;;;16.10;1.00;;;;;;5270520;28;20027;-85
2023/08/31 04:10:34;;;;;;;1.73;1.45;;;16.00;1.00;;;;;;5269775;28;20038;-85
2023/08/31 04:13:05;;;;;;;1.77;1.67;;;16.00;1.00;;;;;;5270115;28;20027;-84
2023/08/31 04:15:36;;;;;;;1.42;1.33;;;16.10;1.00;;;;;;5270025;28;20027;-85
2023/08/31 04:18:10;;;;;;;1.30;1.20;;;16.10;1.00;;;;;;5269423;28;20027;-85
2023/08/31 04:20:58;;;;;;;1.53;1.43;;;16.20;1.00;;;;;;5269789;28;20027;-85
2023/08/31 04:23:31;;;;;;;1.60;1.50;;;16.20;1.00;;;;;;5269525;28;20326;-85
2023/08/31 04:26:13;;;;;;;1.63;1.52;;;16.20;99.90;;;;;;5287294;28;20041;-85
2023/08/31 04:28:47;;;;;;;1.30;1.20;;;16.20;1.00;;;;;;5270070;28;20347;-85
2023/08/31 04:31:18;;;;;;;1.60;1.50;;;16.20;1.00;;;;;;5252892;28;20036;-85
2023/08/31 04:33:53;;;;;;;1.42;1.27;;;16.20;99.90;;;;;;5270615;28;20019;-85
2023/08/31 04:36:28;;;;;;;1.40;1.30;;;16.20;99.90;;;;;;5286053;28;20029;-84
2023/08/31 04:39:03;;;;;;;1.45;1.35;;;16.20;99.90;;;;;;5269423;28;20031;-85
2023/08/31 04:41:38;;;;;;;1.40;1.30;;;16.20;99.90;;;;;;5269045;28;20028;-86
2023/08/31 04:44:10;;;;;;;1.40;1.30;;;16.30;99.90;;;;;;5269534;28;20031;-86
2023/08/31 04:46:44;;;;;;;1.50;1.40;;;16.30;99.90;;;;;;5268968;28;20034;-84
2023/08/31 04:49:18;;;;;;;5.35;1.65;;;16.30;99.90;;;;;;5269268;28;20033;-85
2023/08/31 04:51:54;;;;;;;1.55;1.45;;;16.40;99.90;;;;;;5269200;28;20027;-85
2023/08/31 04:54:27;;;;;;;1.33;1.20;;;16.40;99.90;;;;;;5269855;28;20026;-85
2023/08/31 04:57:03;;;;;;;1.42;1.23;;;16.40;99.90;;;;;;5269237;28;20030;-85
2023/08/31 04:59:37;;;;;;;1.20;1.20;;;16.50;99.90;;;;;;5269009;28;20038;-85
2023/08/31 05:02:08;;;;;;;1.38;1.27;;;16.50;99.90;;;;;;5269272;28;20043;-85
2023/08/31 05:08:08;;;;;;;1.30;1.20;;;16.60;99.90;;;;;;5286173;28;20119;-86
2023/08/31 05:10:44;;;;;;;2.70;1.48;;;16.70;99.90;;;;;;5269558;28;20375;-86
2023/08/31 05:13:18;;;;;;;1.42;1.33;;;16.70;98.00;;;;;;5269714;28;20031;-87
2023/08/31 05:15:54;;;;;;;1.45;1.35;;;16.90;99.90;;;;;;5268951;28;20032;-84
2023/08/31 05:18:33;;;;;;;1.33;1.23;;;16.90;99.90;;;;;;5268566;28;20028;-86
2023/08/31 05:21:07;;;;;;;1.30;1.20;;;17.10;99.90;;;;;;5268888;28;20019;-84
2023/08/31 05:23:45;;;;;;;1.45;1.35;;;17.20;99.90;;;;;;5268690;28;20031;-86
2023/08/31 05:26:19;;;;;;;1.50;1.40;;;17.30;1.00;;;;;;5269263;28;20041;-85
2023/08/31 05:28:50;;;;;;;1.33;1.30;;;17.40;1.00;;;;;;5268939;28;20035;-85
2023/08/31 05:31:24;;;;;;;2.00;1.35;;;17.60;1.00;;;;;;5268819;28;20198;-85
2023/08/31 05:33:58;;;;;;;1.30;1.20;;;17.80;1.00;;;;;;5252052;28;20027;-85
2023/08/31 05:36:29;;;;;;;1.40;1.30;;;18.00;1.00;;;;;;5268351;28;20310;-85
2023/08/31 05:39:01;;;;;;;1.30;1.20;;;18.10;1.00;;;;;;5268634;28;20038;-86
2023/08/31 05:49:23;;;;;;;1.20;1.20;;;18.50;1.00;;;;;;5278427;22;20377;-70
2023/08/31 05:51:57;;;;;;;2.50;1.00;;;18.70;1.00;;;;;;5243386;28;20248;-68
2023/08/31 05:54:29;;;;;;;1.10;1.10;;;18.60;99.90;;;;;;5223304;28;20036;-69
2023/08/31 05:57:03;;;;;;;1.52;1.30;;;18.50;1.00;;;;;;5255962;28;20029;-68
2023/08/31 05:59:34;;;;;;;;;;;18.50;99.90;;;;;;5240050;28;20046;-68
2023/08/31 06:02:08;;;;;;;1.45;1.30;;;18.70;99.90;;;;;;5221889;28;19987;-70
2023/08/31 06:04:40;;;;;;;;;;;18.80;99.90;;;;;;5225031;28;20133;-68
2023/08/31 06:07:11;;;;;;;1.52;1.42;;;18.80;99.90;;;;;;5257773;28;19904;-69
2023/08/31 06:09:45;;;;;;;1.40;1.30;;;18.70;99.90;;;;;;5238780;28;20040;-68
2023/08/31 06:12:21;;;;;;;1.17;1.10;;;18.90;99.90;;;;;;5213875;28;20032;-68
2023/08/31 06:14:55;;;;;;;1.65;1.30;;;18.90;99.90;;;;;;5220108;28;20025;-70
2023/08/31 06:17:32;;;;;;;1.60;1.50;;;19.00;99.90;;;;;;5251425;28;20032;-69
2023/08/31 06:20:06;;;;;;;1.40;1.30;;;19.00;99.90;;;;;;5251942;28;20408;-70
2023/08/31 06:22:37;;;;;;;1.30;1.20;;;18.90;99.90;;;;;;5207818;28;20361;-69
2023/08/31 06:25:11;;;;;;;2.72;1.27;;;18.90;79.40;;;;;;5235902;28;20032;-69
2023/08/31 06:27:44;;;;;;;1.67;1.10;;;18.90;1.00;;;;;;5223517;28;20040;-69
2023/08/31 06:30:20;;;;;;;1.38;1.27;;;19.00;76.60;;;;;;5259686;28;20046;-69
2023/08/31 06:32:53;;;;;;;1.15;1.05;;;19.20;89.30;;;;;;5240304;28;20039;-70
2023/08/31 06:35:24;;;;;;;1.20;1.10;;;19.20;1.00;;;;;;5256780;28;20033;-68
2023/08/31 06:37:56;;;;;;;1.02;1.00;;;19.30;99.90;;;;;;5223184;28;20038;-69
2023/08/31 06:40:27;;;;;;;1.33;1.23;;;19.20;17.10;;;;;;5224392;28;20047;-69
2023/08/31 06:42:58;;;;;;;2.92;1.00;;;19.10;1.00;;;;;;5246348;28;20049;-68
2023/08/31 06:45:32;;;;;;;1.35;1.25;;;18.70;44.50;;;;;;5226560;28;20534;-69
2023/08/31 06:48:04;;;;;;;1.58;1.48;;;18.50;99.90;;;;;;5265119;28;20024;-70
2023/08/31 06:50:43;;;;;;;1.33;1.00;;;18.60;99.90;;;;;;5213704;28;20438;-68
2023/08/31 06:53:17;;;;;;;7.60;1.88;;;18.70;88.00;;;;;;5215284;28;20042;-68
2023/08/31 06:55:49;;;;;;;1.50;1.40;;;18.60;19.30;;;;;;5244162;28;20042;-69
2023/08/31 06:58:22;;;;;;;2.08;1.70;;;18.40;42.50;;;;;;5252919;28;20024;-68
2023/08/31 07:00:56;;;;;;;1.48;1.15;;;18.40;99.90;;;;;;5224514;28;20036;-68
2023/08/31 07:03:27;;;;;;;3.95;1.50;;;18.60;99.90;;;;;;5262618;28;20515;-69
2023/08/31 07:06:00;;;;;;;2.00;1.45;;;18.80;60.00;;;;;;5263671;28;20036;-68
2023/08/31 07:08:31;;;;;;;1.17;1.17;;;19.10;15.20;;;;;;5247120;28;20032;-69
2023/08/31 07:11:04;;;;;;;1.38;1.20;;;19.20;43.60;;;;;;5264260;28;20023;-69
2023/08/31 07:13:35;;;;;;;1.40;1.30;;;19.40;92.20;;;;;;5226855;28;20047;-69
2023/08/31 07:16:08;;;;;;;1.50;1.40;;;19.80;46.00;;;;;;5242976;28;20032;-69
2023/08/31 07:18:39;;;;;;;1.30;1.20;;;19.90;1.00;;;;;;5246439;28;20044;-69
2023/08/31 07:21:11;;;;;;;1.38;1.27;;;19.60;1.00;;;;;;5211087;28;20542;-69
2023/08/31 07:23:42;;;;;;;1.80;1.45;;;19.50;1.00;;;;;;5227088;28;20033;-69
2023/08/31 07:26:16;;;;;;;1.60;1.50;;;19.50;1.00;;;;;;5231971;28;20032;-68
2023/08/31 07:28:47;;;;;;;1.50;1.40;;;19.60;1.00;;;;;;5240654;28;20051;-68
2023/08/31 07:31:21;;;;;;;2.58;1.60;;;19.80;1.00;;;;;;5246984;28;20034;-69
2023/08/31 07:33:52;;;;;;;1.30;1.20;;;19.80;1.00;;;;;;5227159;28;20040;-69
2023/08/31 07:36:26;;;;;;;1.73;1.60;;;19.70;1.00;;;;;;5242020;28;20046;-69
2023/08/31 07:39:00;;;;;;;1.70;1.50;;;19.80;1.00;;;;;;5229690;28;20536;-69
2023/08/31 07:41:31;;;;;;;1.27;1.17;;;19.80;1.00;;;;;;5264410;28;20036;-69
2023/08/31 07:44:03;;;;;;;1.33;1.23;;;19.90;1.00;;;;;;5264335;28;20032;-69
2023/08/31 07:46:34;;;;;;;1.45;1.35;;;20.10;1.00;;;;;;5227266;28;20040;-68
2023/08/31 07:49:08;;;;;;;1.60;1.50;;;20.10;1.00;;;;;;5226290;28;20540;-70
2023/08/31 07:51:39;;;;;;;1.50;1.40;;;20.20;1.00;;;;;;5228803;28;20036;-69
2023/08/31 07:54:24;;;;;;;1.98;1.35;;;20.30;1.00;;;;;;5259372;28;20031;-69
2023/08/31 07:56:55;;;;;;;;;;;20.40;1.00;;;;;;5226072;28;20047;-69
2023/08/31 07:59:27;;;;;;;1.95;1.50;;;20.50;1.00;;;;;;5263072;28;20009;-70
2023/08/31 08:01:58;;;;;;;2.55;1.67;;;20.60;1.00;;;;;;5241610;28;20034;-68
2023/08/31 08:04:32;;;;;;;1.40;1.30;;;20.60;1.00;;;;;;5237477;28;20024;-69
2023/08/31 08:07:04;;;;;;;1.80;1.70;;;20.60;1.00;;;;;;5244595;28;20493;-69
2023/08/31 08:09:35;;;;;;;1.50;1.40;;;20.50;1.00;;;;;;5263748;28;20032;-69
2023/08/31 08:12:11;;;;;;;2.63;1.73;;;20.80;1.00;;;;;;5244819;28;20038;-69
2023/08/31 08:14:42;;;;;;;1.58;1.40;;;21.10;1.00;;;;;;5223197;28;20331;-72
2023/08/31 08:17:15;;;;;;;2.42;1.58;;;20.90;1.00;;;;;;5251574;28;20039;-69
2023/08/31 08:19:46;;;;;;;1.50;1.40;;;20.70;99.90;;;;;;5234904;28;20044;-69
2023/08/31 08:22:17;;;;;;;1.77;1.67;;;20.70;99.90;;;;;;5241163;28;20024;-69
2023/08/31 08:24:49;;;;;;;1.88;1.45;;;20.80;99.90;;;;;;5243593;28;20581;-69
2023/08/31 08:27:25;;;;;;;1.50;1.40;;;21.00;99.90;;;;;;5227125;28;20040;-70
2023/08/31 08:29:56;;;;;;;2.55;1.75;;;21.10;99.90;;;;;;5224650;28;20047;-68
2023/08/31 08:32:27;;;;;;;1.58;1.48;;;20.90;1.00;;;;;;5257233;28;20027;-69
2023/08/31 08:34:58;;;;;;;2.10;1.80;;;20.70;1.00;;;;;;5243416;28;20036;-68
2023/08/31 08:37:33;;;;;;;1.40;1.30;;;20.60;1.00;;;;;;5262913;28;20034;-69
2023/08/31 08:40:05;;;;;;;1.30;1.20;;;20.70;1.00;;;;;;5227765;28;20036;-68
2023/08/31 08:42:41;;;;;;;3.95;1.40;;;21.00;31.80;;;;;;5224618;28;20020;-70
2023/08/31 08:45:16;;;;;;;1.55;1.45;;;21.00;13.20;;;;;;5240063;28;20038;-68
2023/08/31 08:47:47;;;;;;;1.40;1.30;;;21.00;26.30;;;;;;5226774;28;20039;-69
2023/08/31 08:50:23;;;;;;;5.43;1.67;;;21.10;1.00;;;;;;5227003;28;20412;-70
2023/08/31 08:52:56;;;;;;;2.17;1.45;;;21.20;1.00;;;;;;5261578;28;20365;-69
2023/08/31 08:55:30;;;;;;;1.60;1.50;;;21.50;1.00;;;;;;5224237;28;20038;-68
2023/08/31 08:58:07;;;;;;;1.48;1.10;;;21.30;63.50;;;;;;5226306;28;20454;-68
2023/08/31 09:00:40;;;;;;;1.35;1.25;;;21.10;1.00;;;;;;5223698;28;20039;-69
2023/08/31 09:03:11;;;;;;;1.63;1.15;;;21.10;1.00;;;;;;5261239;28;20028;-69
2023/08/31 09:05:44;;;;;;;1.30;1.20;;;21.20;99.90;;;;;;5237320;28;20039;-69
2023/08/31 09:08:15;;;;;;;1.92;1.30;;;21.00;1.00;;;;;;5191548;28;20032;-68
2023/08/31 09:10:46;;;;;;;2.42;1.50;;;21.00;1.00;;;;;;5226394;28;20044;-69
2023/08/31 09:13:17;;;;;;;1.35;1.10;;;21.00;1.00;;;;;;5242992;28;20035;-69
2023/08/31 09:15:49;;;;;;;1.27;1.17;;;21.00;1.00;;;;;;5221635;28;20565;-69
2023/08/31 09:18:33;;;;;;;1.42;1.33;;;21.40;99.90;;;;;;5226525;28;20043;-70
2023/08/31 09:21:04;;;;;;;1.27;1.17;;;21.80;1.00;;;;;;5256787;28;20245;-70
2023/08/31 09:23:35;;;;;;;1.70;1.50;;;21.80;1.00;;;;;;5223864;28;20036;-69
2023/08/31 09:26:11;;;;;;;1.33;1.23;;;22.20;99.90;;;;;;5241989;28;20030;-70
2023/08/31 09:28:43;;;;;;;1.30;1.05;;;22.20;1.00;;;;;;5222334;28;20099;-70
2023/08/31 09:31:16;;;;;;;1.48;1.38;;;22.10;1.00;;;;;;5223178;28;20024;-72
2023/08/31 09:33:56;;;;;;;1.13;1.02;;;22.30;1.00;;;;;;5223017;28;20337;-70
2023/08/31 09:36:29;;;;;;;1.00;1.00;;;22.00;1.00;;;;;;5252056;28;20024;-70
2023/08/31 09:39:04;;;;;;;1.45;1.35;;;21.90;1.00;;;;;;5204958;28;20043;-69
2023/08/31 09:41:54;;;;;;;1.35;1.25;;;22.10;1.00;;;;;;5221638;28;20454;-70
2023/08/31 09:44:25;;;;;;;0.93;0.93;;;22.30;1.00;;;;;;5220554;28;20511;-69
2023/08/31 09:47:03;;;;;;;1.15;0.90;;;22.00;1.00;;;;;;5237727;28;20029;-69
2023/08/31 09:49:38;;;;;;;1.30;1.10;;;22.30;1.00;;;;;;5238331;28;20049;-70
2023/08/31 09:52:13;;;;;;;0.93;0.93;;;22.50;99.90;;;;;;5225079;28;20034;-69
2023/08/31 09:54:47;;;;;;;1.88;1.30;;;22.20;99.90;;;;;;5237933;28;20061;-70
2023/08/31 09:57:21;;;;;;;1.25;1.25;;;22.40;1.00;;;;;;5243447;28;20016;-70
2023/08/31 09:59:53;;;;;;;1.20;1.20;;;22.90;1.00;;;;;;5241980;28;20201;-70
2023/08/31 10:02:26;;;;;;;0.80;0.80;;;23.00;99.90;;;;;;5236521;28;20363;-70
2023/08/31 10:05:02;;;;;;;1.30;1.20;;;23.00;99.90;;;;;;5223021;28;20043;-70
2023/08/31 10:07:40;;;;;;;1.38;0.88;;;23.30;99.90;;;;;;5238114;28;20038;-71
2023/08/31 10:10:12;;;;;;;1.10;1.05;;;23.70;1.00;;;;;;5222651;28;20290;-71
2023/08/31 10:12:47;;;;;;;0.93;0.93;;;23.50;99.90;;;;;;5238039;28;21406;-70
2023/08/31 10:15:20;;;;;;;1.15;1.10;;;23.20;99.90;;;;;;5214892;28;20035;-69
2023/08/31 10:17:52;;;;;;;2.20;1.13;;;23.10;62.60;;;;;;5224064;28;20024;-70
2023/08/31 10:20:28;;;;;;;1.08;1.08;;;23.40;27.20;;;;;;5239732;28;20024;-70
2023/08/31 10:23:06;;;;;;;0.98;0.98;;;23.30;81.60;;;;;;5221885;28;20217;-70
2023/08/31 10:26:05;;;;;;;1.77;1.10;;;22.90;38.00;;;;;;5224575;28;20320;-71
2023/08/31 10:28:44;;;;;;;1.50;1.30;;;23.50;1.00;;;;;;5219169;28;20156;-70
2023/08/31 10:31:20;;;;;;;0.95;0.95;;;24.30;1.00;;;;;;5230825;28;20038;-72
2023/08/31 10:33:58;;;;;;;1.25;1.15;;;24.60;1.00;;;;;;5254408;28;20024;-72
2023/08/31 10:36:44;;;;;;;1.02;1.00;;;24.20;1.00;;;;;;5228739;28;20032;-70
2023/08/31 10:39:17;;;;;;;1.20;1.10;;;25.00;1.00;;;;;;5222552;28;20036;-71
2023/08/31 10:42:03;;;;;;;1.02;1.02;;;25.30;1.00;;;;;;5268245;28;20225;-69
2023/08/31 10:44:34;;;;;;;1.00;1.00;;;24.80;1.00;;;;;;5230196;28;20040;-71
2023/08/31 10:47:08;;;;;;;1.02;0.98;;;24.50;1.00;;;;;;5229259;28;20310;-69
2023/08/31 10:49:51;;;;;;;1.02;1.00;;;24.40;1.00;;;;;;5218733;28;20032;-71
2023/08/31 10:52:22;;;;;;;1.27;1.10;;;24.00;1.00;;;;;;5224800;28;20032;-70
2023/08/31 10:54:55;;;;;;;0.90;0.90;;;24.20;1.00;;;;;;5257734;28;20093;-68
2023/08/31 10:57:33;;;;;;;1.95;1.02;;;24.20;1.00;;;;;;5226339;28;20235;-69
2023/08/31 11:00:05;;;;;;;1.70;1.02;;;24.10;1.00;;;;;;5232061;28;20276;-69
2023/08/31 11:02:44;;;;;;;1.20;1.10;;;24.00;1.00;;;;;;5232408;28;20032;-70
2023/08/31 11:05:18;;;;;;;1.42;1.02;;;23.20;1.00;;;;;;5230838;28;20028;-69
2023/08/31 11:07:52;;;;;;;;;;;23.70;1.00;;;;;;5223388;28;21200;-69
2023/08/31 11:10:26;;;;;;;1.87;1.13;;;23.80;1.00;;;;;;5220234;28;20257;-70
2023/08/31 11:12:59;;;;;;;2.03;1.05;;;23.90;1.00;;;;;;5271747;28;20344;-68
2023/08/31 11:15:31;;;;;;;1.08;1.00;;;24.30;1.00;;;;;;5244461;28;20041;-68
2023/08/31 11:18:07;;;;;;;1.63;1.45;;;23.90;1.00;;;;;;5238311;28;20020;-69
2023/08/31 11:20:38;;;;;;;1.05;0.95;;;24.40;1.00;;;;;;5232582;28;20133;-68
2023/08/31 11:23:10;;;;;;;1.10;1.00;;;25.10;99.90;;;;;;5248469;28;20021;-69
2023/08/31 11:25:41;;;;;;;1.10;1.05;;;25.50;1.00;;;;;;5208386;28;20225;-71
2023/08/31 11:28:15;;;;;;;1.08;0.98;;;26.80;1.00;;;;;;5231965;28;20054;-70
2023/08/31 11:30:49;;;;;;;;;;;26.90;99.90;;;;;;5236731;28;20054;-70
2023/08/31 11:33:21;;;;;;;1.75;1.17;;;26.30;1.00;;;;;;5218002;28;20454;-73
2023/08/31 11:35:53;;;;;;;1.65;1.08;;;26.40;1.00;;;;;;5233334;28;20040;-70
2023/08/31 11:38:27;;;;;;;1.52;1.20;;;27.40;1.00;;;;;;5225652;28;20070;-70
2023/08/31 11:41:04;;;;;;;1.15;1.05;;;26.90;99.90;;;;;;5227973;28;20427;-69
2023/08/31 11:43:37;;;;;;;1.40;1.05;;;26.20;99.90;;;;;;5215147;28;20028;-70
2023/08/31 11:46:11;;;;;;;1.05;0.85;;;26.10;99.90;;;;;;5204093;28;20028;-68
2023/08/31 11:48:43;;;;;;;1.27;1.17;;;25.10;99.90;;;;;;5202968;28;20041;-68
2023/08/31 11:51:19;;;;;;;1.50;1.40;;;24.50;99.90;;;;;;5202551;28;20040;-69
2023/08/31 11:53:53;;;;;;;1.58;1.00;;;24.60;99.90;;;;;;5246495;28;20034;-69
2023/08/31 11:56:24;;;;;;;1.38;1.20;;;24.70;99.90;;;;;;5219257;28;20039;-69
2023/08/31 11:58:56;;;;;;;0.95;0.95;;;25.10;99.90;;;;;;5252455;28;20039;-70
2023/08/31 12:01:32;;;;;;;1.33;1.23;;;26.20;99.90;;;;;;5227093;28;20040;-69
2023/08/31 12:04:10;;;;;;;1.15;1.00;;;26.50;99.90;;;;;;5221289;28;20027;-70
2023/08/31 12:06:45;;;;;;;1.52;1.42;;;27.10;99.90;;;;;;5239729;28;20250;-68
2023/08/31 12:09:19;;;;;;;1.02;0.93;;;26.60;99.90;;;;;;5235934;28;20046;-70
2023/08/31 12:11:51;;;;;;;1.15;1.13;;;26.00;99.90;;;;;;5232981;28;20043;-70
2023/08/31 12:14:29;;;;;;;1.23;1.13;;;26.50;99.90;;;;;;5221845;28;20381;-70
2023/08/31 12:17:05;;;;;;;1.40;1.20;;;25.90;99.90;;;;;;5236259;28;20028;-71
2023/08/31 12:19:39;;;;;;;0.70;0.70;;;27.00;99.90;;;;;;5233998;28;20487;-70
2023/08/31 12:22:14;;;;;;;0.95;0.90;;;27.20;99.90;;;;;;5216202;28;20066;-72
2023/08/31 12:24:45;;;;;;;0.85;0.85;;;28.00;99.90;;;;;;5220871;28;20246;-69
2023/08/31 12:27:16;;;;;;;0.90;0.90;;;28.40;99.90;;;;;;5232472;28;20034;-68
2023/08/31 12:29:50;;;;;;;1.20;1.13;;;27.30;99.90;;;;;;5231310;28;20350;-71
2023/08/31 12:32:26;;;;;;;2.17;1.10;;;27.80;99.90;;;;;;5217320;28;20044;-70
2023/08/31 12:35:03;;;;;;;0.90;0.90;;;28.20;99.90;;;;;;5244035;28;20035;-69
2023/08/31 12:37:34;;;;;;;1.98;1.30;;;27.90;99.90;;;;;;5236083;28;20033;-69
2023/08/31 12:40:06;;;;;;;0.95;0.85;;;27.80;99.90;;;;;;5222420;28;20047;-70
2023/08/31 12:42:40;;;;;;;1.23;1.13;;;27.90;99.90;;;;;;5223725;28;20042;-69
2023/08/31 12:45:14;;;;;;;2.87;1.20;;;27.60;99.90;;;;;;5211547;28;20035;-69
2023/08/31 12:47:45;;;;;;;1.17;1.08;;;27.30;99.90;;;;;;5243208;28;20196;-69
2023/08/31 12:50:16;;;;;;;2.13;1.00;;;27.80;99.90;;;;;;5221443;28;20058;-69
2023/08/31 12:52:50;;;;;;;2.10;1.10;;;28.10;99.90;;;;;;5256415;28;20031;-69
2023/08/31 12:55:21;;;;;;;1.00;0.80;;;28.20;99.90;;;;;;5259720;28;20036;-70
2023/08/31 12:57:53;;;;;;;1.88;1.00;;;28.40;99.90;;;;;;5238785;28;20038;-70
2023/08/31 13:00:24;;;;;;;1.05;1.02;;;28.50;99.90;;;;;;5249044;28;20046;-69
2023/08/31 13:02:55;;;;;;;1.58;1.13;;;27.80;99.90;;;;;;5209975;28;20040;-70
2023/08/31 13:05:29;;;;;;;1.20;1.02;;;27.50;85.60;;;;;;5244911;28;20035;-69
2023/08/31 13:08:00;;;;;;;2.60;1.05;;;27.10;1.00;;;;;;5244080;28;20035;-70
2023/08/31 13:10:34;;;;;;;3.55;1.10;;;26.50;1.00;;;;;;5262789;28;20032;-70
2023/08/31 13:13:05;;;;;;;1.42;0.93;;;27.10;99.90;;;;;;5225056;28;20042;-69
2023/08/31 13:15:36;;;;;;;2.63;0.90;;;26.40;99.90;;;;;;5234242;28;20172;-69
2023/08/31 13:18:07;;;;;;;2.03;1.10;;;26.40;99.90;;;;;;5227124;28;20354;-70
2023/08/31 13:20:39;;;;;;;1.02;0.93;;;26.30;99.90;;;;;;5258597;28;20046;-70
2023/08/31 13:23:10;;;;;;;0.80;0.80;;;26.10;99.90;;;;;;5226268;28;20036;-70
2023/08/31 13:25:41;;;;;;;1.90;0.90;;;26.70;99.90;;;;;;5241848;28;20032;-70
2023/08/31 13:28:14;;;;;;;0.80;0.80;;;27.50;99.90;;;;;;5239673;28;20036;-69
2023/08/31 13:30:48;;;;;;;1.23;0.80;;;27.70;99.90;;;;;;5221032;28;20047;-70
2023/08/31 13:33:20;;;;;;;0.80;0.80;;;28.90;99.90;;;;;;5221459;28;20024;-70
2023/08/31 13:35:51;;;;;;;3.67;0.90;;;29.50;99.90;;;;;;5236113;28;20043;-71
2023/08/31 13:38:23;;;;;;;1.30;1.20;;;28.80;99.90;;;;;;5241671;28;20229;-70
2023/08/31 13:40:58;;;;;;;2.08;0.88;;;27.40;99.90;;;;;;5238083;28;20046;-69
2023/08/31 13:43:29;;;;;;;1.20;1.10;;;27.20;99.90;;;;;;5223058;28;20036;-70
2023/08/31 13:46:04;;;;;;;0.90;0.82;;;27.00;99.90;;;;;;5256644;28;20047;-68
2023/08/31 13:48:38;;;;;;;1.00;0.90;;;26.80;99.90;;;;;;5221105;28;20047;-69
2023/08/31 13:51:09;;;;;;;2.67;1.40;;;26.00;99.90;;;;;;5215374;28;20542;-70